createdAt,value
2022-11-05T00:01:16.428Z,37.30
2022-11-05T00:06:41.714Z,41.50
2022-11-05T00:12:07.327Z,37.60
2022-11-05T00:17:14.896Z,42.40
2022-11-05T00:22:40.301Z,40.00
2022-11-05T00:27:52.700Z,37.90
2022-11-05T00:33:04.900Z,31.30
2022-11-05T00:38:13.008Z,32.10
2022-11-05T00:43:53.255Z,35.60
2022-11-05T00:49:18.630Z,35.10
2022-11-05T00:54:26.241Z,30.60
2022-11-05T00:59:33.959Z,31.20
2022-11-05T01:04:41.548Z,29.40
2022-11-05T01:09:49.160Z,30.30
2022-11-05T01:14:56.813Z,30.20
2022-11-05T01:20:04.643Z,35.20
2022-11-05T01:25:12.965Z,37.50
2022-11-05T01:30:21.315Z,32.40
2022-11-05T01:35:29.073Z,33.20
2022-11-05T01:40:36.862Z,29.20
2022-11-05T01:45:45.343Z,29.90
2022-11-05T01:50:58.869Z,31.20
2022-11-05T01:56:10.877Z,34.60
2022-11-05T02:01:19.894Z,30.00
2022-11-05T02:06:30.239Z,30.10
2022-11-05T02:11:38.103Z,32.10
2022-11-05T02:16:52.141Z,36.10
2022-11-05T02:22:39.324Z,29.60
2022-11-05T02:28:14.142Z,28.00
2022-11-05T02:33:32.213Z,29.00
2022-11-05T02:38:47.307Z,30.20
2022-11-05T02:44:14.026Z,33.00
2022-11-05T02:49:32.032Z,29.90
2022-11-05T02:54:44.303Z,34.40
2022-11-05T03:00:00.939Z,34.90
2022-11-05T03:05:09.265Z,37.90
2022-11-05T03:10:34.704Z,34.40
2022-11-05T03:15:54.649Z,37.40
2022-11-05T03:21:07.212Z,32.30
2022-11-05T03:26:20.361Z,29.40
2022-11-05T03:31:30.303Z,34.80
2022-11-05T03:36:42.521Z,31.70
2022-11-05T03:41:53.317Z,28.70
2022-11-05T03:47:05.583Z,32.70
2022-11-05T03:52:16.694Z,36.40
2022-11-05T03:57:30.299Z,27.20
2022-11-05T04:02:38.458Z,30.50
2022-11-05T04:08:07.668Z,27.30
2022-11-05T04:13:28.150Z,27.60
2022-11-05T04:18:36.624Z,33.70
2022-11-05T04:24:01.868Z,23.80
2022-11-05T04:29:27.752Z,28.30
2022-11-05T04:34:35.469Z,28.10
2022-11-05T04:39:43.142Z,27.10
2022-11-05T04:44:50.828Z,26.70
2022-11-05T04:49:58.550Z,29.00
2022-11-05T04:55:08.035Z,28.70
2022-11-05T05:00:16.807Z,27.70
2022-11-05T05:05:24.419Z,26.70
2022-11-05T05:10:32.151Z,28.60
2022-11-05T05:15:40.214Z,29.10
2022-11-05T05:26:11.783Z,26.00
2022-11-05T05:31:19.453Z,28.40
2022-11-05T05:41:33.873Z,29.10
2022-11-05T05:51:49.530Z,37.30
2022-11-05T05:56:58.278Z,30.70
2022-11-05T06:02:06.244Z,31.30
2022-11-05T06:12:20.221Z,39.20
2022-11-05T06:17:28.250Z,33.20
2022-11-05T06:27:42.280Z,39.30
2022-11-05T06:32:50.377Z,33.80
2022-11-05T06:38:01.814Z,28.70
2022-11-05T06:43:09.729Z,37.90
2022-11-05T06:48:18.208Z,31.30
2022-11-05T06:53:26.005Z,39.70
2022-11-05T06:58:33.822Z,37.50
2022-11-05T07:03:42.015Z,36.30
2022-11-05T07:08:50.481Z,31.00
2022-11-05T07:13:58.558Z,32.50
2022-11-05T07:19:06.283Z,33.20
2022-11-05T07:24:15.469Z,34.10
2022-11-05T07:29:23.198Z,28.20
2022-11-05T07:34:30.840Z,27.80
2022-11-05T07:39:38.528Z,29.20
2022-11-05T07:44:46.234Z,24.50
2022-11-05T07:49:53.868Z,21.30
2022-11-05T07:55:01.690Z,20.20
2022-11-05T08:00:12.713Z,21.20
2022-11-05T08:05:20.514Z,16.70
2022-11-05T08:10:28.604Z,17.80
2022-11-05T08:15:37.329Z,17.50
2022-11-05T08:20:46.976Z,17.00
2022-11-05T08:25:55.534Z,18.70
2022-11-05T08:31:03.295Z,12.90
2022-11-05T08:36:11.290Z,11.10
2022-11-05T08:41:19.047Z,9.70
2022-11-05T08:46:26.830Z,11.30
2022-11-05T08:51:34.608Z,6.70
2022-11-05T08:56:42.324Z,6.80
2022-11-05T09:01:50.985Z,6.80
2022-11-05T09:06:58.804Z,5.20
2022-11-05T09:12:13.122Z,7.40
2022-11-05T09:17:22.936Z,17.00
2022-11-05T09:22:31.013Z,6.30
2022-11-05T09:27:38.715Z,3.00
2022-11-05T09:32:46.406Z,10.60
2022-11-05T09:37:59.742Z,3.90
2022-11-05T09:43:16.724Z,3.90
2022-11-05T09:48:29.390Z,5.30
2022-11-05T09:53:41.530Z,8.60
2022-11-05T09:58:53.141Z,3.00
2022-11-05T10:04:06.621Z,7.80
2022-11-05T10:09:21.559Z,9.90
2022-11-05T10:14:34.675Z,2.60
2022-11-05T10:19:51.036Z,3.80
2022-11-05T10:24:59.293Z,4.50
2022-11-05T10:30:08.477Z,3.80
2022-11-05T10:35:22.789Z,5.30
2022-11-05T10:40:44.420Z,5.60
2022-11-05T10:45:59.428Z,6.10
2022-11-05T10:51:09.601Z,16.20
2022-11-05T10:56:34.350Z,7.00
2022-11-05T11:01:42.204Z,5.40
2022-11-05T11:12:15.035Z,8.20
2022-11-05T11:17:35.263Z,11.10
2022-11-05T11:23:03.815Z,8.30
2022-11-05T11:28:20.561Z,5.80
2022-11-05T11:33:30.431Z,6.40
2022-11-05T11:38:39.719Z,10.60
2022-11-05T11:43:48.388Z,10.30
2022-11-05T11:48:56.397Z,13.30
2022-11-05T11:54:05.803Z,7.30
2022-11-05T11:59:40.864Z,15.70
2022-11-05T12:05:18.916Z,9.70
2022-11-05T12:10:42.814Z,9.20
2022-11-05T12:15:53.921Z,12.30
2022-11-05T12:21:09.522Z,6.70
2022-11-05T12:26:28.023Z,11.70
2022-11-05T12:31:44.439Z,12.60
2022-11-05T12:37:24.462Z,25.20
2022-11-05T12:42:46.615Z,20.90
2022-11-05T12:48:10.586Z,18.50
2022-11-05T12:53:45.899Z,16.20
2022-11-05T12:59:01.549Z,17.00
2022-11-05T13:04:15.906Z,19.50
2022-11-05T13:09:29.691Z,21.20
2022-11-05T13:14:41.738Z,19.30
2022-11-05T13:19:55.252Z,31.20
2022-11-05T13:25:07.210Z,16.30
2022-11-05T13:30:20.805Z,27.90
2022-11-05T13:35:32.975Z,18.80
2022-11-05T13:40:53.309Z,16.80
2022-11-05T13:46:38.662Z,24.40
2022-11-05T13:51:55.941Z,16.90
2022-11-05T13:57:24.145Z,24.70
2022-11-05T14:02:37.430Z,26.70
2022-11-05T14:07:49.669Z,23.70
2022-11-05T14:13:00.643Z,24.30
2022-11-05T14:18:31.826Z,23.20
2022-11-05T14:23:50.801Z,20.80
2022-11-05T14:29:39.625Z,20.60
2022-11-05T14:34:54.780Z,28.60
2022-11-05T14:40:30.657Z,27.00
2022-11-05T14:45:41.471Z,36.20
2022-11-05T14:50:50.094Z,31.80
2022-11-05T14:56:03.382Z,28.30
2022-11-05T15:01:31.768Z,26.90
2022-11-05T15:11:53.553Z,29.50
2022-11-05T15:17:05.533Z,23.00
2022-11-05T15:22:26.841Z,26.40
2022-11-05T15:27:51.063Z,29.40
2022-11-05T15:33:11.294Z,28.80
2022-11-05T15:38:30.621Z,25.40
2022-11-05T15:43:47.692Z,21.80
2022-11-05T15:48:58.681Z,26.20
2022-11-05T15:54:29.283Z,29.40
2022-11-05T15:59:35.329Z,24.70
2022-11-05T16:04:47.225Z,23.80
2022-11-05T16:09:58.544Z,29.30
2022-11-05T16:15:21.644Z,26.40
2022-11-05T16:20:35.639Z,29.00
2022-11-05T16:25:44.371Z,22.90
2022-11-05T16:31:01.204Z,32.00
2022-11-05T16:36:10.952Z,27.40
2022-11-05T16:41:21.383Z,28.70
2022-11-05T16:46:31.314Z,31.10
2022-11-05T16:51:39.187Z,24.50
2022-11-05T16:56:47.717Z,20.60
2022-11-05T17:01:56.076Z,27.80
2022-11-05T17:07:04.053Z,27.30
2022-11-05T17:12:12.058Z,33.50
2022-11-05T17:17:19.670Z,27.60
2022-11-05T17:22:27.349Z,30.30
2022-11-05T17:27:34.969Z,29.40
2022-11-05T17:32:42.717Z,61.00
2022-11-05T17:37:50.445Z,57.80
2022-11-05T17:42:58.154Z,70.40
2022-11-05T17:48:06.202Z,57.90
2022-11-05T17:58:21.102Z,49.50
2022-11-05T18:08:35.754Z,45.10
2022-11-05T18:13:43.461Z,34.00
2022-11-05T18:19:03.996Z,45.90
2022-11-05T18:24:16.088Z,49.20
2022-11-05T18:29:26.938Z,51.00
2022-11-05T18:34:34.730Z,39.00
2022-11-05T18:44:49.604Z,54.60
2022-11-05T18:49:57.452Z,41.40
2022-11-05T18:55:05.659Z,46.00
2022-11-05T19:00:15.539Z,41.80
2022-11-05T19:05:28.963Z,49.30
2022-11-05T19:10:42.224Z,48.10
2022-11-05T19:15:49.973Z,38.10
2022-11-05T19:20:57.845Z,50.40
2022-11-05T19:26:08.883Z,41.70
2022-11-05T19:31:19.835Z,49.50
2022-11-05T19:36:27.763Z,41.10
2022-11-05T19:46:44.131Z,38.00
2022-11-05T19:51:52.196Z,38.70
2022-11-05T19:57:00.056Z,33.30
2022-11-05T20:02:13.366Z,40.50
2022-11-05T20:07:23.910Z,48.60
2022-11-05T20:12:32.068Z,54.30
2022-11-05T20:17:45.062Z,53.90
2022-11-05T20:22:57.735Z,31.70
2022-11-05T20:28:05.882Z,30.20
2022-11-05T20:33:14.253Z,38.40
2022-11-05T20:38:22.101Z,32.30
2022-11-05T20:43:31.391Z,26.50
2022-11-05T20:48:39.518Z,31.20
2022-11-05T20:58:55.668Z,31.40
2022-11-05T21:04:04.390Z,39.00
2022-11-05T21:09:12.278Z,42.70
2022-11-05T21:19:26.500Z,45.30
2022-11-05T21:24:35.014Z,34.80
2022-11-05T21:29:44.070Z,35.00
2022-11-05T21:34:54.150Z,32.60
2022-11-05T21:40:02.028Z,57.60
2022-11-05T21:50:21.655Z,56.10
2022-11-05T21:55:47.217Z,45.90
2022-11-05T22:00:54.988Z,44.80
2022-11-05T22:06:03.028Z,45.30
2022-11-05T22:16:17.122Z,38.30
2022-11-05T22:21:25.331Z,33.50
2022-11-05T22:26:33.247Z,50.70
2022-11-05T22:31:41.462Z,33.70
2022-11-05T22:36:49.327Z,53.40
2022-11-05T22:42:00.440Z,39.50
2022-11-05T22:47:10.850Z,46.60
2022-11-05T22:52:18.509Z,51.10
2022-11-05T22:57:28.916Z,30.70
2022-11-05T23:02:40.614Z,33.80
2022-11-05T23:08:05.936Z,30.30
2022-11-05T23:13:13.709Z,28.70
2022-11-05T23:24:14.957Z,37.40
2022-11-05T23:29:24.521Z,42.90
2022-11-05T23:34:32.406Z,40.00
2022-11-05T23:45:14.065Z,44.80
2022-11-05T23:50:22.216Z,38.30
2022-11-05T23:55:31.097Z,36.00
